Time;durP1;ratioP1;P1;durP2;ratioP2;P2;SDS_P1;SDS_P2;PMS_P1;PMS_P2;Temp;Humidity;BMP_temperature;BMP_pressure;BME280_temperature;BME280_humidity;BME280_pressure;Samples;Min_cycle;Max_cycle;Signal;HPM_P1;HPM_P2
2022/06/19 00:01:02;;;;;;;27.95;10.80;;;;;;;24.15;58.98;100291.84;5095378;28;20044;-59
2022/06/19 00:03:33;;;;;;;32.85;10.93;;;;;;;24.14;59.28;100290.22;5095033;28;20068;-60
2022/06/19 00:06:02;;;;;;;27.88;10.35;;;;;;;24.07;59.53;100282.28;5095514;28;20071;-60
2022/06/19 00:08:30;;;;;;;31.73;10.38;;;;;;;24.02;58.86;100284.94;5095224;28;20443;-60
2022/06/19 00:10:58;;;;;;;34.90;9.98;;;;;;;24.01;59.40;100286.00;5095242;28;20035;-60
2022/06/19 00:13:25;;;;;;;29.33;10.98;;;;;;;23.98;59.66;100285.69;5095612;28;20048;-60
2022/06/19 00:15:52;;;;;;;29.38;10.52;;;;;;;23.89;59.67;100288.03;5094942;28;20135;-60
2022/06/19 00:18:20;;;;;;;29.85;10.32;;;;;;;23.86;60.46;100278.53;5095524;28;20074;-60
2022/06/19 00:20:46;;;;;;;30.05;10.30;;;;;;;23.76;60.54;100268.38;5094760;28;20387;-59
2022/06/19 00:23:13;;;;;;;28.17;10.90;;;;;;;23.72;60.64;100259.13;5095006;28;20040;-59
2022/06/19 00:25:40;;;;;;;40.47;11.13;;;;;;;23.67;61.12;100244.72;5094946;28;20058;-61
2022/06/19 00:28:07;;;;;;;32.63;10.77;;;;;;;23.67;60.46;100233.88;5095231;28;20052;-60
2022/06/19 00:30:34;;;;;;;26.23;11.05;;;;;;;23.65;61.04;100244.13;5094620;28;20036;-60
2022/06/19 00:33:02;;;;;;;31.92;11.05;;;;;;;23.62;60.68;100240.03;5095105;28;20101;-60
2022/06/19 00:35:29;;;;;;;29.05;11.07;;;;;;;23.48;61.34;100239.59;5094452;28;20044;-60
2022/06/19 00:37:57;;;;;;;25.20;10.52;;;;;;;23.47;61.93;100239.88;5095026;28;20048;-60
2022/06/19 00:40:27;;;;;;;24.77;10.20;;;;;;;23.50;61.46;100231.22;5094804;28;20130;-60
2022/06/19 00:42:54;;;;;;;31.67;10.73;;;;;;;23.56;61.79;100228.34;5094604;28;20036;-60
2022/06/19 00:45:39;;;;;;;28.73;10.77;;;;;;;23.68;61.29;100227.38;5094703;28;20048;-59
2022/06/19 00:48:14;;;;;;;24.55;10.32;;;;;;;23.64;62.13;100218.94;5094842;28;20055;-60
2022/06/19 00:50:43;;;;;;;27.77;10.77;;;;;;;23.64;62.14;100223.53;5094699;28;20397;-61
2022/06/19 00:53:16;;;;;;;28.92;10.65;;;;;;;23.65;62.19;100209.75;5094402;28;20111;-60
2022/06/19 00:55:46;;;;;;;23.83;10.48;;;;;;;23.52;62.80;100200.16;5094230;28;20040;-60
2022/06/19 00:58:20;;;;;;;30.70;10.48;;;;;;;23.48;63.38;100201.69;5094252;28;20405;-60
2022/06/19 01:00:52;;;;;;;34.05;11.32;;;;;;;23.42;63.14;100193.78;5093731;28;20050;-58
2022/06/19 01:03:25;;;;;;;31.55;11.60;;;;;;;23.42;63.26;100186.47;5094375;28;20127;-59
2022/06/19 01:05:53;;;;;;;23.08;10.88;;;;;;;23.38;63.11;100182.66;5094321;28;20078;-59
2022/06/19 01:08:20;;;;;;;26.88;10.88;;;;;;;23.30;63.51;100177.66;5090615;28;20056;-60
2022/06/19 01:10:49;;;;;;;29.08;11.15;;;;;;;23.28;63.59;100169.81;5077121;28;20041;-59
2022/06/19 01:13:19;;;;;;;26.15;10.73;;;;;;;23.13;63.37;100162.31;5073576;28;20045;-59
2022/06/19 01:15:47;;;;;;;23.60;10.93;;;;;;;23.10;64.10;100160.13;5073858;28;20044;-59
2022/06/19 01:18:13;;;;;;;30.13;10.95;;;;;;;22.97;63.72;100161.25;5072757;28;20040;-59
2022/06/19 01:20:43;;;;;;;28.10;10.40;;;;;;;22.92;64.58;100152.25;5073872;28;20044;-59
2022/06/19 01:23:36;;;;;;;24.60;10.52;;;;;;;23.02;64.10;100155.13;5073676;28;20639;-59
2022/06/19 01:26:04;;;;;;;30.15;10.38;;;;;;;22.96;64.19;100153.44;5073805;28;20496;-59
2022/06/19 01:28:55;;;;;;;29.92;10.63;;;;;;;22.97;64.23;100146.94;5074421;28;20048;-59
2022/06/19 01:31:26;;;;;;;30.17;11.05;;;;;;;22.83;64.00;100145.66;5093737;28;20051;-59
2022/06/19 01:34:01;;;;;;;25.48;10.52;;;;;;;22.85;64.54;100148.94;5093004;28;20389;-59
2022/06/19 01:36:30;;;;;;;30.80;10.82;;;;;;;22.88;64.36;100138.44;5094040;28;20134;-59
2022/06/19 01:38:59;;;;;;;25.95;10.55;;;;;;;22.84;64.71;100131.09;5093634;28;20048;-60
2022/06/19 01:41:30;;;;;;;35.53;11.20;;;;;;;22.78;64.64;100132.91;5093806;28;20055;-59
2022/06/19 01:43:57;;;;;;;26.58;11.13;;;;;;;22.78;64.97;100133.72;5093920;28;20380;-59
2022/06/19 01:46:27;;;;;;;34.72;10.77;;;;;;;22.76;64.80;100133.16;5093893;28;20048;-59
2022/06/19 01:48:56;;;;;;;33.83;10.85;;;;;;;22.78;64.74;100125.59;5092471;28;20515;-59
2022/06/19 01:51:23;;;;;;;25.35;10.00;;;;;;;22.75;64.43;100120.69;5093740;28;20097;-59
2022/06/19 01:54:00;;;;;;;29.30;10.38;;;;;;;22.75;64.26;100117.97;5093937;28;20233;-59
2022/06/19 01:56:28;;;;;;;30.25;10.65;;;;;;;22.72;64.18;100115.81;5093712;28;20516;-59
2022/06/19 01:59:01;;;;;;;30.50;10.25;;;;;;;22.69;64.23;100110.88;5093442;28;20448;-59
2022/06/19 02:01:28;;;;;;;23.98;9.80;;;;;;;22.67;63.72;100107.63;5092022;28;20079;-59
2022/06/19 02:03:59;;;;;;;27.95;10.30;;;;;;;22.66;63.77;100103.25;5092638;28;20032;-59
2022/06/19 02:06:29;;;;;;;29.33;10.15;;;;;;;22.64;63.07;100101.88;5093574;28;20040;-58
2022/06/19 02:09:00;;;;;;;35.03;9.80;;;;;;;22.47;62.75;100112.75;5093524;28;20040;-58
2022/06/19 02:11:27;;;;;;;28.63;9.48;;;;;;;22.37;63.00;100122.31;5093481;28;20048;-58
2022/06/19 02:13:57;;;;;;;34.97;10.27;;;;;;;22.36;63.68;100136.09;5093643;28;20070;-58
2022/06/19 02:16:25;;;;;;;27.42;10.40;;;;;;;22.41;63.26;100130.72;5093068;28;20039;-59
2022/06/19 02:18:53;;;;;;;31.73;10.95;;;;;;;22.40;65.04;100126.41;5093366;28;20039;-60
2022/06/19 02:21:35;;;;;;;26.10;11.05;;;;;;;22.33;65.87;100123.88;5093266;28;20114;-59
2022/06/19 02:24:02;;;;;;;26.55;9.93;;;;;;;22.34;66.55;100119.28;5096366;28;20075;-59
2022/06/19 02:26:29;;;;;;;27.17;10.32;;;;;;;22.42;66.76;100116.16;5097543;28;20477;-58
2022/06/19 02:28:56;;;;;;;23.25;9.80;;;;;;;22.27;67.11;100124.88;5097428;28;20046;-59
2022/06/19 02:31:23;;;;;;;24.77;11.20;;;;;;;22.12;67.98;100133.53;5096121;28;20059;-58
2022/06/19 02:33:53;;;;;;;18.05;9.95;;;;;;;22.12;68.29;100144.31;5096609;28;20097;-59
2022/06/19 02:39:50;;;;;;;20.25;9.00;;;;;;;21.93;69.36;100159.91;5131771;27;20856;-60
2022/06/19 02:42:30;;;;;;;16.60;8.02;;;;;;;21.73;69.67;100184.66;5111092;28;20118;-58
2022/06/19 02:45:01;;;;;;;17.75;7.50;;;;;;;21.62;69.25;100212.53;5111290;28;20048;-58
2022/06/19 02:47:35;;;;;;;15.07;7.22;;;;;;;21.47;69.50;100215.75;5111293;28;20123;-58
2022/06/19 02:50:04;;;;;;;18.23;7.57;;;;;;;21.42;69.30;100161.66;5110997;28;20051;-59
2022/06/19 02:52:32;;;;;;;16.60;7.60;;;;;;;21.41;69.35;100135.72;5111034;28;20101;-59
2022/06/19 02:54:59;;;;;;;21.27;6.97;;;;;;;21.29;69.17;100150.06;5111141;28;20071;-59
2022/06/19 02:57:26;;;;;;;18.58;6.68;;;;;;;21.26;68.59;100157.81;5110882;28;20046;-59
2022/06/19 02:59:53;;;;;;;23.75;6.40;;;;;;;21.05;68.98;100167.38;5111100;28;20511;-59
2022/06/19 03:02:20;;;;;;;18.52;6.57;;;;;;;21.01;69.70;100206.63;5110745;28;20373;-60
2022/06/19 03:04:53;;;;;;;14.85;6.55;;;;;;;21.02;69.75;100181.31;5110230;28;20044;-59
2022/06/19 03:07:20;;;;;;;17.40;7.60;;;;;;;21.01;69.37;100167.03;5110811;28;20090;-60
2022/06/19 03:09:46;;;;;;;18.33;6.82;;;;;;;20.87;68.99;100198.00;5107917;28;20039;-60
2022/06/19 03:12:13;;;;;;;20.48;6.20;;;;;;;20.80;69.16;100203.50;5072548;28;20106;-59
2022/06/19 03:14:41;;;;;;;16.75;5.88;;;;;;;20.67;68.65;100180.28;5072487;28;20386;-59
2022/06/19 03:17:12;;;;;;;22.25;6.32;;;;;;;20.49;69.08;100197.34;5089954;28;20051;-59
2022/06/19 03:19:39;;;;;;;18.55;6.65;;;;;;;20.37;68.96;100226.13;5090119;28;20048;-58
2022/06/19 03:22:07;;;;;;;21.92;5.63;;;;;;;20.27;68.44;100245.56;5090155;28;20490;-58
2022/06/19 03:24:33;;;;;;;28.90;5.95;;;;;;;20.01;68.37;100235.16;5089914;28;20059;-58
2022/06/19 03:27:00;;;;;;;18.38;5.32;;;;;;;19.89;68.26;100256.66;5071955;28;20037;-59
2022/06/19 03:29:27;;;;;;;21.88;5.88;;;;;;;19.55;68.19;100258.91;5098377;28;20044;-58
2022/06/19 03:31:54;;;;;;;23.13;5.85;;;;;;;19.43;68.00;100250.78;5091865;28;20093;-58
2022/06/19 03:34:20;;;;;;;20.10;4.85;;;;;;;19.01;68.38;100261.34;5110169;28;20047;-58
2022/06/19 03:36:47;;;;;;;17.08;5.40;;;;;;;18.96;68.21;100253.13;5110484;28;20048;-58
2022/06/19 03:39:14;;;;;;;20.58;5.25;;;;;;;18.81;68.28;100258.84;5089618;28;20510;-58
2022/06/19 03:41:41;;;;;;;16.40;4.97;;;;;;;18.73;68.25;100284.06;5089912;28;20178;-58
2022/06/19 03:44:08;;;;;;;19.80;4.80;;;;;;;18.62;68.07;100282.09;5089796;28;20139;-59
2022/06/19 03:46:35;;;;;;;22.98;5.07;;;;;;;18.54;68.02;100283.19;5089837;28;20509;-58
2022/06/19 03:49:03;;;;;;;26.67;5.50;;;;;;;18.39;68.25;100279.97;5085139;28;20516;-59
2022/06/19 03:51:30;;;;;;;22.73;5.55;;;;;;;18.34;67.91;100302.13;5076285;28;20049;-59
2022/06/19 03:53:57;;;;;;;24.10;5.93;;;;;;;18.27;67.91;100312.09;5076245;28;20490;-59
2022/06/19 03:56:28;;;;;;;19.13;4.88;;;;;;;18.26;67.79;100320.34;5076019;28;20052;-59
2022/06/19 03:58:54;;;;;;;29.60;5.87;;;;;;;18.14;66.97;100352.44;5075845;28;20059;-58
2022/06/19 04:01:26;;;;;;;16.50;3.70;;;;;;;18.12;66.52;100344.56;5076059;28;20286;-59
2022/06/19 04:03:54;;;;;;;18.40;4.38;;;;;;;17.91;66.69;100352.91;5057405;28;20409;-59
2022/06/19 04:06:24;;;;;;;16.27;4.20;;;;;;;17.74;66.22;100331.88;5075993;28;20052;-59
2022/06/19 04:08:51;;;;;;;22.45;4.30;;;;;;;17.62;66.28;100345.09;5058052;28;20051;-58
2022/06/19 04:11:20;;;;;;;23.20;4.10;;;;;;;17.56;66.73;100388.06;5075865;28;20098;-58
2022/06/19 04:13:47;;;;;;;22.42;4.47;;;;;;;17.55;66.17;100410.53;5075850;28;20490;-58
2022/06/19 04:16:21;;;;;;;22.45;4.45;;;;;;;17.54;65.03;100406.22;5075560;28;20379;-58
2022/06/19 04:18:49;;;;;;;30.08;4.30;;;;;;;17.39;64.64;100385.81;5075590;28;20065;-58
2022/06/19 04:21:22;;;;;;;18.67;3.67;;;;;;;17.30;64.75;100394.25;5075680;28;20102;-58
2022/06/19 04:23:53;;;;;;;25.98;4.32;;;;;;;17.31;64.21;100395.91;5075627;28;20051;-58
2022/06/19 04:26:22;;;;;;;18.77;3.60;;;;;;;17.36;63.83;100396.94;5075322;28;20071;-58
2022/06/19 04:28:48;;;;;;;23.58;3.47;;;;;;;17.27;63.74;100404.34;5072193;28;20095;-59
2022/06/19 04:31:16;;;;;;;19.38;3.47;;;;;;;17.19;63.14;100395.69;5055030;28;20432;-58
2022/06/19 04:33:44;;;;;;;17.30;3.40;;;;;;;17.21;62.60;100396.34;5054920;28;20049;-58
2022/06/19 04:36:14;;;;;;;29.27;3.95;;;;;;;16.91;62.21;100387.84;5055198;28;20053;-58
2022/06/19 04:38:43;;;;;;;23.60;4.50;;;;;;;16.91;61.84;100382.50;5054824;28;20072;-59
2022/06/19 04:41:15;;;;;;;23.58;4.53;;;;;;;16.85;62.02;100363.53;5054955;28;20045;-59
2022/06/19 04:43:42;;;;;;;26.05;4.15;;;;;;;16.84;62.42;100359.19;5055368;28;20045;-58
2022/06/19 04:46:09;;;;;;;21.65;4.13;;;;;;;16.80;62.00;100375.84;5055130;28;20045;-59
2022/06/19 04:48:38;;;;;;;18.90;4.40;;;;;;;16.83;62.20;100378.97;5055087;28;20045;-58
2022/06/19 04:51:05;;;;;;;28.20;3.88;;;;;;;16.94;61.92;100382.09;5055070;28;20102;-59
2022/06/19 04:53:32;;;;;;;23.05;4.25;;;;;;;16.93;61.36;100385.78;5054741;28;20051;-59
2022/06/19 04:55:59;;;;;;;19.05;3.75;;;;;;;16.93;61.32;100391.16;5054670;28;20068;-59
2022/06/19 04:58:26;;;;;;;19.65;3.45;;;;;;;16.91;60.76;100366.41;5054828;28;20045;-58
2022/06/19 05:00:54;;;;;;;22.48;3.55;;;;;;;17.01;61.80;100362.31;5053900;28;20553;-59
2022/06/19 05:03:22;;;;;;;20.83;3.38;;;;;;;17.14;61.04;100358.81;5054922;28;20048;-59
2022/06/19 05:05:52;;;;;;;25.50;3.50;;;;;;;17.04;60.62;100387.84;5054265;28;20052;-59
2022/06/19 05:08:20;;;;;;;20.58;3.40;;;;;;;16.84;60.64;100446.75;5054677;28;20041;-59
2022/06/19 05:10:47;;;;;;;24.75;3.50;;;;;;;16.81;60.90;100469.41;5058897;28;20041;-59
2022/06/19 05:13:17;;;;;;;27.02;3.65;;;;;;;16.72;60.43;100424.22;5054739;28;20049;-58
2022/06/19 05:15:46;;;;;;;20.08;4.15;;;;;;;16.84;60.69;100415.44;5036719;28;20040;-58
2022/06/19 05:18:13;;;;;;;18.75;3.45;;;;;;;16.81;60.36;100415.81;5054439;28;20045;-59
2022/06/19 05:20:40;;;;;;;24.30;3.90;;;;;;;16.81;60.32;100447.97;5054569;28;20052;-61
2022/06/19 05:23:09;;;;;;;20.65;3.45;;;;;;;16.80;60.38;100446.31;5054316;28;20095;-59
2022/06/19 05:25:37;;;;;;;23.02;3.47;;;;;;;16.98;60.55;100431.56;5054528;28;20045;-59
2022/06/19 05:28:04;;;;;;;23.38;3.45;;;;;;;17.11;59.53;100414.66;5053956;28;20037;-59
2022/06/19 05:30:31;;;;;;;20.02;3.28;;;;;;;17.10;59.32;100421.03;5070786;28;20044;-59
2022/06/19 05:32:58;;;;;;;19.70;3.65;;;;;;;16.94;59.58;100430.31;5073956;28;20379;-59
2022/06/19 05:35:25;;;;;;;17.45;3.17;;;;;;;16.95;58.62;100421.22;5073949;28;20040;-59
2022/06/19 05:37:51;;;;;;;21.20;3.58;;;;;;;16.88;58.63;100422.06;5073854;28;20049;-59
2022/06/19 05:40:18;;;;;;;22.63;3.50;;;;;;;16.94;58.71;100414.25;5073839;28;20508;-59
2022/06/19 05:42:48;;;;;;;23.38;4.05;;;;;;;17.11;58.08;100391.38;5074077;28;20055;-59
2022/06/19 05:45:15;;;;;;;24.65;3.45;;;;;;;17.12;57.57;100403.75;5056385;28;20048;-59
2022/06/19 05:47:41;;;;;;;15.55;3.30;;;;;;;17.12;57.32;100400.22;5073992;28;20059;-59
2022/06/19 05:50:11;;;;;;;22.10;4.72;;;;;;;17.27;57.28;100387.44;5073832;28;20044;-59
2022/06/19 05:52:38;;;;;;;21.33;4.07;;;;;;;17.37;57.16;100377.16;5073978;28;20102;-59
2022/06/19 05:55:06;;;;;;;21.15;3.67;;;;;;;17.40;56.57;100366.00;5073818;28;20056;-59
2022/06/19 05:57:33;;;;;;;21.95;3.83;;;;;;;17.52;57.12;100362.66;5073867;28;20079;-59
2022/06/19 06:00:00;;;;;;;22.88;3.92;;;;;;;17.50;56.29;100349.50;5073662;28;20062;-58
2022/06/19 06:02:48;;;;;;;20.92;3.63;;;;;;;17.54;57.05;100339.16;5086923;28;20353;-58
2022/06/19 06:05:15;;;;;;;22.17;4.07;;;;;;;17.58;57.29;100318.94;5087156;28;20041;-59
2022/06/19 06:07:42;;;;;;;19.30;3.67;;;;;;;17.56;57.30;100327.19;5090680;28;20036;-58
2022/06/19 06:10:10;;;;;;;23.63;3.88;;;;;;;17.59;57.04;100324.09;5090396;28;20044;-58
2022/06/19 06:12:37;;;;;;;21.15;3.55;;;;;;;17.72;57.17;100322.38;5090963;28;20478;-59
2022/06/19 06:15:05;;;;;;;21.75;3.30;;;;;;;17.72;57.46;100325.06;5089499;28;20044;-59
2022/06/19 06:17:31;;;;;;;25.35;3.65;;;;;;;17.77;56.72;100336.00;5090419;28;20114;-59
2022/06/19 06:19:58;;;;;;;22.65;3.53;;;;;;;17.94;57.32;100352.50;5090680;28;20051;-59
2022/06/19 06:22:25;;;;;;;23.38;4.45;;;;;;;18.08;56.40;100356.78;5090634;28;20040;-58
2022/06/19 06:24:51;;;;;;;22.20;3.83;;;;;;;18.07;56.71;100332.84;5090741;28;20127;-59
2022/06/19 06:27:19;;;;;;;21.60;3.90;;;;;;;18.06;57.23;100323.94;5090277;28;20036;-58
2022/06/19 06:29:46;;;;;;;19.08;4.03;;;;;;;18.08;57.23;100304.94;5090510;28;20062;-57
2022/06/19 06:32:12;;;;;;;19.85;3.83;;;;;;;18.15;57.22;100295.00;5089878;28;20048;-58
2022/06/19 06:34:39;;;;;;;22.10;3.55;;;;;;;18.25;57.74;100294.56;5090410;28;20040;-58
2022/06/19 06:37:06;;;;;;;25.05;4.07;;;;;;;18.26;57.41;100323.84;5090520;28;20052;-58
2022/06/19 06:39:32;;;;;;;20.67;3.45;;;;;;;18.14;57.50;100350.56;5088888;28;20378;-58
2022/06/19 06:41:59;;;;;;;28.40;3.75;;;;;;;18.17;57.69;100360.88;5090310;28;20093;-58
2022/06/19 06:44:26;;;;;;;22.63;4.43;;;;;;;18.04;57.59;100379.69;5090424;28;20076;-58
2022/06/19 06:46:52;;;;;;;22.40;4.28;;;;;;;18.08;57.84;100369.34;5089778;28;20040;-58
2022/06/19 06:49:19;;;;;;;20.50;3.83;;;;;;;18.14;58.03;100371.22;5090299;28;20052;-58
2022/06/19 06:51:46;;;;;;;26.50;4.15;;;;;;;18.20;57.65;100379.22;5090068;28;20478;-58
2022/06/19 06:54:13;;;;;;;23.77;3.92;;;;;;;18.35;58.14;100389.69;5090084;28;20044;-58
2022/06/19 06:56:39;;;;;;;23.60;4.10;;;;;;;18.29;57.67;100419.25;5090019;28;20060;-59
2022/06/19 06:59:06;;;;;;;25.17;4.47;;;;;;;18.44;57.86;100408.25;5090052;28;20074;-59
2022/06/19 07:01:33;;;;;;;23.75;4.07;;;;;;;18.48;57.29;100433.63;5089390;28;20048;-59
2022/06/19 07:04:00;;;;;;;22.27;4.13;;;;;;;18.66;57.25;100449.84;5088191;28;20040;-59
2022/06/19 07:06:29;;;;;;;25.90;4.07;;;;;;;18.66;57.07;100475.91;5089831;28;20051;-58
2022/06/19 07:08:57;;;;;;;20.38;3.83;;;;;;;18.76;57.12;100503.16;5089816;28;20044;-59
2022/06/19 07:11:28;;;;;;;20.17;3.63;;;;;;;18.86;56.62;100518.84;5086707;28;20036;-59
2022/06/19 07:13:55;;;;;;;26.38;3.53;;;;;;;18.91;57.19;100551.28;5057688;28;20041;-59
2022/06/19 07:16:22;;;;;;;28.00;4.28;;;;;;;19.02;57.23;100592.78;5055848;28;20045;-59
2022/06/19 07:18:49;;;;;;;22.27;4.85;;;;;;;18.89;55.89;100609.78;5056275;28;20044;-59
2022/06/19 07:21:15;;;;;;;30.08;5.18;;;;;;;19.01;55.45;100643.03;5055892;28;20098;-59
2022/06/19 07:23:42;;;;;;;20.92;4.28;;;;;;;19.20;56.40;100703.16;5055848;28;20131;-58
2022/06/19 07:26:12;;;;;;;30.17;4.50;;;;;;;19.38;55.34;100692.53;5055961;28;20047;-58
2022/06/19 07:28:41;;;;;;;34.78;5.68;;;;;;;18.78;54.29;100714.16;5057890;28;20045;-58
2022/06/19 07:31:09;;;;;;;28.52;5.20;;;;;;;18.69;54.61;100696.59;5075877;28;20040;-58
2022/06/19 07:33:37;;;;;;;26.77;4.50;;;;;;;18.69;54.52;100666.25;5075351;28;20127;-59
2022/06/19 07:36:05;;;;;;;21.08;3.85;;;;;;;18.78;55.09;100714.16;5075553;28;20350;-59
2022/06/19 07:38:32;;;;;;;21.00;4.10;;;;;;;18.87;53.22;100714.00;5075670;28;20044;-59
2022/06/19 07:40:59;;;;;;;20.25;3.90;;;;;;;18.72;53.83;100706.09;5075299;28;20044;-58
2022/06/19 07:43:27;;;;;;;20.88;4.07;;;;;;;18.82;54.50;100665.41;5074391;28;20041;-59
2022/06/19 07:45:54;;;;;;;24.35;4.13;;;;;;;18.82;53.57;100668.91;5074488;28;20044;-58
2022/06/19 07:51:07;;;;;;;27.20;4.15;;;;;;;18.82;52.73;100676.16;5075079;28;20048;-58
2022/06/19 07:53:34;;;;;;;25.92;3.63;;;;;;;18.87;52.49;100671.00;5075203;28;20044;-58
2022/06/19 07:56:01;;;;;;;25.08;3.90;;;;;;;18.88;52.33;100662.72;5057527;28;20548;-58
2022/06/19 07:58:27;;;;;;;26.70;4.05;;;;;;;18.94;53.02;100685.25;5074125;28;20102;-58
2022/06/19 08:00:54;;;;;;;25.85;4.60;;;;;;;19.13;52.51;100665.50;5073806;28;20414;-58
2022/06/19 08:03:21;;;;;;;18.67;3.72;;;;;;;19.08;52.32;100646.53;5074741;28;20052;-58
2022/06/19 08:05:48;;;;;;;26.20;3.75;;;;;;;19.17;52.37;100661.38;5075066;28;20048;-58
2022/06/19 08:08:25;;;;;;;26.42;4.38;;;;;;;19.00;52.06;100646.75;5074870;28;20379;-58
2022/06/19 08:10:53;;;;;;;28.42;4.07;;;;;;;18.95;51.60;100650.06;5074977;28;20068;-58
2022/06/19 08:13:23;;;;;;;20.38;3.67;;;;;;;18.86;52.74;100664.78;5074762;28;20037;-58
2022/06/19 08:15:53;;;;;;;29.17;4.15;;;;;;;18.99;52.08;100664.75;5074370;28;20512;-58
2022/06/19 08:18:20;;;;;;;20.40;3.85;;;;;;;19.02;53.44;100658.13;5074685;28;20425;-58
2022/06/19 08:20:48;;;;;;;23.35;3.60;;;;;;;19.08;52.33;100651.06;5074816;28;20076;-58
2022/06/19 08:23:15;;;;;;;24.60;3.55;;;;;;;19.17;52.80;100657.84;5074810;28;20040;-58
2022/06/19 08:25:43;;;;;;;19.95;3.97;;;;;;;19.13;52.33;100662.00;5073384;28;20040;-58
2022/06/19 08:28:10;;;;;;;21.52;3.63;;;;;;;19.01;52.14;100679.81;5074768;28;20544;-58
2022/06/19 08:30:40;;;;;;;21.20;3.70;;;;;;;19.26;51.66;100685.34;5074008;28;20067;-58
2022/06/19 08:33:07;;;;;;;20.58;3.40;;;;;;;19.18;52.43;100684.53;5074313;28;20474;-59
2022/06/19 08:35:39;;;;;;;24.67;4.57;;;;;;;19.32;51.52;100692.56;5074545;28;20490;-58
2022/06/19 08:38:11;;;;;;;20.63;3.85;;;;;;;19.50;51.53;100697.22;5074278;28;20048;-58
2022/06/19 08:40:51;;;;;;;20.27;4.00;;;;;;;19.52;50.76;100690.59;5074210;28;20063;-59
2022/06/19 08:43:41;;;;;;;22.95;4.22;;;;;;;19.74;51.30;100687.63;5074450;28;20040;-58
2022/06/19 08:46:38;;;;;;;18.98;3.72;;;;;;;19.60;50.02;100688.72;5074260;28;20523;-58
2022/06/19 08:49:34;;;;;;;20.50;3.40;;;;;;;19.61;50.21;100666.13;5074039;28;20041;-59
2022/06/19 08:58:05;;;;;;;18.77;3.33;;;;;;;19.94;48.76;100639.06;5111130;27;20376;-57
2022/06/19 09:01:01;;;;;;;21.85;3.65;;;;;;;19.92;49.14;100630.38;5109739;28;20443;-57
2022/06/19 09:07:03;;;;;;;21.90;3.47;;;;;;;20.43;48.36;100617.69;5110854;28;20040;-58
2022/06/19 09:12:55;;;;;;;27.42;4.70;;;;;;;20.50;48.71;100630.06;5105825;27;20737;-59
2022/06/19 09:18:24;;;;;;;20.67;3.28;;;;;;;20.57;48.41;100621.91;5131672;27;20123;-58
2022/06/19 09:24:01;;;;;;;19.92;3.50;;;;;;;20.65;48.02;100637.00;5111173;27;20376;-58
2022/06/19 09:26:36;;;;;;;23.55;3.80;;;;;;;20.51;47.26;100636.28;5113840;28;20079;-58
2022/06/19 09:29:18;;;;;;;21.63;3.92;;;;;;;20.45;47.80;100627.22;5111263;28;20040;-56
2022/06/19 09:31:53;;;;;;;21.27;3.53;;;;;;;20.33;48.99;100615.53;5110700;28;20044;-57
2022/06/19 09:34:29;;;;;;;25.70;4.50;;;;;;;20.15;50.97;100605.53;5111040;28;20425;-58
2022/06/19 09:37:05;;;;;;;27.05;4.15;;;;;;;20.06;51.44;100596.06;5109920;28;20055;-57
2022/06/19 09:39:46;;;;;;;21.70;4.10;;;;;;;20.14;49.98;100615.47;5105961;28;20047;-50
2022/06/19 09:42:15;;;;;;;;;;;;;;;20.00;52.90;100613.13;5108970;28;20047;-50
2022/06/19 09:45:04;;;;;;;27.83;4.35;;;;;;;20.09;51.03;100596.47;5095367;28;19973;-53
2022/06/19 09:50:48;;;;;;;21.77;5.05;;;;;;;20.40;53.29;100564.28;5111999;27;20758;-53
2022/06/19 09:53:40;;;;;;;28.85;5.32;;;;;;;20.62;51.33;100549.34;5092173;28;20044;-51
2022/06/19 09:56:50;;;;;;;28.02;6.20;;;;;;;20.61;49.10;100565.72;5096366;28;20037;-53
2022/06/19 09:59:45;;;;;;;32.90;6.07;;;;;;;20.68;49.80;100551.16;5080847;28;20039;-53
2022/06/19 10:02:38;;;;;;;24.13;5.43;;;;;;;20.77;48.65;100585.88;5105943;28;20040;-55
2022/06/19 10:05:37;;;;;;;23.55;5.72;;;;;;;20.74;48.58;100570.97;5112818;28;20505;-53
2022/06/19 10:08:27;;;;;;;23.33;5.20;;;;;;;20.75;49.60;100588.78;5076861;28;20035;-54
2022/06/19 10:11:13;;;;;;;24.40;5.45;;;;;;;20.65;50.13;100551.59;5104720;28;20074;-53
2022/06/19 10:14:02;;;;;;;36.65;11.15;;;;;;;20.69;50.15;100481.91;5108434;28;20091;-53
2022/06/19 10:16:45;;;;;;;32.50;5.35;;;;;;;20.44;53.97;100348.06;5095965;28;20079;-54
2022/06/19 10:19:17;;;;;;;25.30;4.82;;;;;;;20.32;54.88;100279.91;5103293;28;20044;-54
2022/06/19 10:22:26;;;;;;;24.80;4.78;;;;;;;20.17;56.38;100311.78;5109249;28;20237;-52
2022/06/19 10:25:12;;;;;;;22.50;5.63;;;;;;;20.16;54.78;100339.78;5108952;28;20044;-54
2022/06/19 10:28:11;;;;;;;27.45;5.65;;;;;;;20.20;53.92;100349.84;5105388;28;20048;-53
2022/06/19 10:31:05;;;;;;;27.08;5.28;;;;;;;20.50;53.42;100368.75;5089146;28;20150;-54
2022/06/19 10:33:53;;;;;;;23.40;4.95;;;;;;;20.64;51.36;100460.19;5090214;28;20047;-54
2022/06/19 10:39:45;;;;;;;32.50;5.63;;;;;;;20.84;51.57;100474.22;5111102;27;20892;-51
2022/06/19 10:42:29;;;;;;;32.65;6.00;;;;;;;21.04;51.06;100454.25;5109296;28;20043;-53
2022/06/19 10:45:27;;;;;;;27.05;5.53;;;;;;;21.59;50.47;100443.22;5108800;28;20127;-52
2022/06/19 10:48:22;;;;;;;32.53;6.13;;;;;;;21.99;49.22;100472.22;5109495;28;20554;-52
2022/06/19 10:51:10;;;;;;;32.80;6.30;;;;;;;22.10;47.86;100483.22;5109938;28;20047;-52
2022/06/19 10:56:36;;;;;;;47.85;9.43;;;;;;;21.93;47.65;100520.94;5110953;27;20366;-51
2022/06/19 10:59:04;;;;;;;39.47;7.78;;;;;;;21.93;46.83;100526.34;5111075;28;20119;-53
2022/06/19 11:04:28;;;;;;;31.98;5.10;;;;;;;22.25;47.21;100534.91;5089680;28;20032;-52
2022/06/19 11:07:16;;;;;;;46.25;7.97;;;;;;;22.56;46.45;100533.69;5081996;28;20128;-53
2022/06/19 11:09:47;;;;;;;36.55;7.45;;;;;;;22.49;46.30;100522.19;5123737;28;20435;-53
2022/06/19 11:12:22;;;;;;;29.23;5.53;;;;;;;22.63;45.42;100538.97;5092682;28;20075;-52
2022/06/19 11:14:55;;;;;;;26.38;4.85;;;;;;;22.86;45.28;100521.03;5098475;28;20139;-53
2022/06/19 11:17:40;;;;;;;28.08;4.93;;;;;;;23.00;44.99;100485.34;5072540;28;20478;-53
2022/06/19 11:20:27;;;;;;;31.55;4.63;;;;;;;22.87;45.52;100485.63;5089312;28;20060;-53
2022/06/19 11:23:34;;;;;;;35.10;5.63;;;;;;;22.73;45.26;100468.88;5090139;28;20040;-50
2022/06/19 11:26:25;;;;;;;33.55;6.35;;;;;;;22.24;46.31;100465.69;5101293;28;20044;-51
2022/06/19 11:29:19;;;;;;;30.67;6.88;;;;;;;21.94;47.21;100477.50;5086019;28;20044;-49
2022/06/19 11:32:09;;;;;;;23.50;5.07;;;;;;;21.85;47.37;100492.41;5087648;28;20127;-53
2022/06/19 11:34:48;;;;;;;27.83;5.55;;;;;;;22.00;47.48;100495.44;5088882;28;20090;-52
2022/06/19 11:37:22;;;;;;;30.20;5.57;;;;;;;21.91;48.11;100499.56;5067328;28;20393;-53
2022/06/19 11:42:59;;;;;;;26.13;5.03;;;;;;;21.65;48.32;100511.66;5100276;27;20969;-52
2022/06/19 11:45:31;;;;;;;32.03;5.63;;;;;;;21.46;47.93;100503.63;5095928;28;20520;-52
2022/06/19 11:48:01;;;;;;;30.40;5.38;;;;;;;21.52;48.38;100514.53;5103855;28;20523;-53
2022/06/19 11:50:50;;;;;;;29.30;5.72;;;;;;;21.67;48.62;100558.13;5093095;28;20430;-52
2022/06/19 11:53:23;;;;;;;30.15;5.03;;;;;;;21.58;48.38;100544.13;5096928;28;20048;-53
2022/06/19 11:56:11;;;;;;;30.60;4.85;;;;;;;21.82;47.94;100571.97;5087364;28;20653;-53
2022/06/19 11:58:41;;;;;;;24.75;4.40;;;;;;;22.01;47.55;100569.16;5071541;28;20055;-53
2022/06/19 12:01:13;;;;;;;29.73;4.55;;;;;;;22.29;46.93;100586.63;5101924;28;20064;-51
2022/06/19 12:03:53;;;;;;;27.77;4.35;;;;;;;22.54;46.74;100587.19;5070509;28;20044;-52
2022/06/19 12:06:38;;;;;;;25.23;4.80;;;;;;;22.53;46.32;100592.81;5090575;28;20072;-53
2022/06/19 12:09:26;;;;;;;23.60;4.38;;;;;;;22.59;46.58;100595.41;5077596;28;20058;-54
2022/06/19 12:12:02;;;;;;;45.45;11.13;;;;;;;22.66;46.39;100586.34;5081240;28;20113;-54
2022/06/19 12:14:36;;;;;;;34.00;7.53;;;;;;;22.68;46.23;100586.91;5092935;28;20500;-54
2022/06/19 12:17:21;;;;;;;44.65;10.25;;;;;;;22.52;46.10;100578.50;5089643;28;20062;-53
2022/06/19 12:20:00;;;;;;;40.20;8.13;;;;;;;22.54;45.84;100564.72;5076014;28;20047;-53